Time;durP1;ratioP1;P1;durP2;ratioP2;P2;SDS_P1;SDS_P2;PMS_P1;PMS_P2;Temp;Humidity;BMP_temperature;BMP_pressure;BME280_temperature;BME280_humidity;BME280_pressure;Samples;Min_cycle;Max_cycle;Signal;HPM_P1;HPM_P2
2024/02/21 00:01:23;;;;;;;30.80;16.73;;;;;;;6.64;100.00;100824.78;5027118;28;20021;-79
2024/02/21 00:03:49;;;;;;;32.00;17.20;;;;;;;6.62;100.00;100840.03;5027124;28;20040;-79
2024/02/21 00:06:14;;;;;;;32.33;17.30;;;;;;;6.23;100.00;100809.03;5025010;28;20581;-80
2024/02/21 00:08:40;;;;;;;29.30;15.77;;;;;;;6.40;100.00;100839.78;5014409;28;20030;-79
2024/02/21 00:11:05;;;;;;;26.67;16.45;;;;;;;6.59;100.00;100850.97;5019920;28;20022;-80
2024/02/21 00:13:31;;;;;;;31.65;17.42;;;;;;;6.54;100.00;100840.88;5026992;28;20037;-79
2024/02/21 00:15:56;;;;;;;30.85;16.52;;;;;;;6.19;100.00;100836.88;5033171;28;20037;-79
2024/02/21 00:18:22;;;;;;;30.55;16.42;;;;;;;5.95;100.00;100828.03;5040423;28;20025;-80
2024/02/21 00:20:47;;;;;;;30.00;17.98;;;;;;;6.29;100.00;100841.97;5024706;28;20042;-79
2024/02/21 00:23:12;;;;;;;31.70;17.63;;;;;;;6.71;100.00;100846.91;5027115;28;20029;-79
2024/02/21 00:25:38;;;;;;;30.63;18.13;;;;;;;6.33;100.00;100833.50;5026350;28;20041;-79
2024/02/21 00:28:05;;;;;;;29.63;17.08;;;;;;;6.14;100.00;100828.63;5026960;28;20021;-78
2024/02/21 00:30:31;;;;;;;31.73;17.92;;;;;;;6.09;100.00;100820.34;5026832;28;20049;-78
2024/02/21 00:32:56;;;;;;;27.40;15.85;;;;;;;6.26;100.00;100832.56;5026951;28;20109;-79
2024/02/21 00:35:22;;;;;;;27.45;16.33;;;;;;;6.02;100.00;100830.81;5027055;28;20033;-79
2024/02/21 00:37:47;;;;;;;28.58;17.20;;;;;;;5.99;100.00;100836.47;5026422;28;20057;-80
2024/02/21 00:40:12;;;;;;;26.40;16.17;;;;;;;6.22;100.00;100815.34;5026592;28;20505;-79
2024/02/21 00:42:38;;;;;;;31.23;16.77;;;;;;;6.52;100.00;100823.47;5026666;28;20037;-79
2024/02/21 00:45:04;;;;;;;27.25;15.63;;;;;;;6.49;100.00;100831.78;5033047;28;20024;-79
2024/02/21 00:47:29;;;;;;;27.10;15.88;;;;;;;6.62;100.00;100822.28;5035276;28;20029;-80
2024/02/21 00:49:55;;;;;;;26.67;15.95;;;;;;;6.73;100.00;100823.72;5026102;28;20468;-79
2024/02/21 00:52:20;;;;;;;29.05;16.70;;;;;;;6.41;100.00;100814.09;5023888;28;20040;-79
2024/02/21 00:54:46;;;;;;;29.77;16.02;;;;;;;6.37;100.00;100826.03;5027889;28;20041;-79
2024/02/21 00:57:11;;;;;;;29.75;16.38;;;;;;;6.53;100.00;100838.41;5035222;28;20026;-79
2024/02/21 00:59:37;;;;;;;28.65;16.60;;;;;;;6.27;100.00;100828.91;5025010;28;20083;-79
2024/02/21 01:02:03;;;;;;;28.48;15.85;;;;;;;6.58;100.00;100839.53;5025044;28;20398;-79
2024/02/21 01:04:28;;;;;;;29.05;16.80;;;;;;;6.71;100.00;100833.66;5026555;28;20426;-79
2024/02/21 01:06:53;;;;;;;28.60;16.40;;;;;;;6.52;100.00;100804.94;5021632;28;20034;-78
2024/02/21 01:09:19;;;;;;;29.67;15.93;;;;;;;6.10;100.00;100800.84;5021995;28;20193;-79
2024/02/21 01:11:44;;;;;;;28.13;16.70;;;;;;;6.03;100.00;100816.59;5030170;28;20630;-78
2024/02/21 01:14:11;;;;;;;31.25;17.08;;;;;;;6.10;100.00;100840.56;5029571;28;20465;-78
2024/02/21 01:16:36;;;;;;;32.17;17.55;;;;;;;6.40;100.00;100820.41;5029355;28;20108;-78
2024/02/21 01:19:01;;;;;;;30.83;17.27;;;;;;;6.26;100.00;100815.84;5017799;28;20033;-79
2024/02/21 01:21:27;;;;;;;33.85;17.58;;;;;;;6.22;100.00;100820.66;5029721;28;20045;-79
2024/02/21 01:23:53;;;;;;;31.58;17.48;;;;;;;6.51;100.00;100835.09;5013912;28;20041;-78
2024/02/21 01:26:19;;;;;;;33.53;18.30;;;;;;;6.19;100.00;100813.03;5029404;28;20036;-79
2024/02/21 01:28:44;;;;;;;33.78;18.88;;;;;;;6.17;100.00;100822.97;5021987;28;20116;-79
2024/02/21 01:31:10;;;;;;;41.22;22.88;;;;;;;6.71;100.00;100831.00;5019546;28;20030;-78
2024/02/21 01:33:35;;;;;;;38.83;20.73;;;;;;;6.55;100.00;100809.91;5029860;28;20119;-79
2024/02/21 01:36:06;;;;;;;35.00;19.75;;;;;;;6.75;100.00;100815.59;5029482;28;20029;-79
2024/02/21 01:38:32;;;;;;;35.72;21.27;;;;;;;6.48;100.00;100808.94;5029302;28;20046;-78
2024/02/21 01:40:57;;;;;;;35.35;21.10;;;;;;;6.71;100.00;100824.91;5029163;28;20032;-78
2024/02/21 01:43:23;;;;;;;40.10;22.50;;;;;;;7.03;100.00;100831.81;5028853;28;20040;-78
2024/02/21 01:45:57;;;;;;;43.08;21.88;;;;;;;6.65;100.00;100799.91;5028645;28;20029;-78
2024/02/21 01:48:23;;;;;;;36.75;21.27;;;;;;;6.40;100.00;100800.03;5027623;28;20041;-78
2024/02/21 01:50:50;;;;;;;37.03;21.70;;;;;;;6.56;100.00;100800.94;5029499;28;20029;-78
2024/02/21 01:53:21;;;;;;;34.72;21.17;;;;;;;6.53;100.00;100802.13;5028626;28;20044;-79
2024/02/21 01:55:47;;;;;;;37.00;21.27;;;;;;;6.79;100.00;100811.59;5027631;28;20052;-79
2024/02/21 01:58:18;;;;;;;37.15;21.52;;;;;;;6.75;100.00;100789.91;5028345;28;20600;-78
2024/02/21 02:00:45;;;;;;;41.15;20.95;;;;;;;6.80;100.00;100819.38;5028647;28;20021;-78
2024/02/21 02:03:16;;;;;;;33.42;20.45;;;;;;;6.76;100.00;100796.88;5028833;28;20749;-78
2024/02/21 02:05:51;;;;;;;35.20;21.08;;;;;;;6.44;100.00;100798.69;5029249;28;20040;-78
2024/02/21 02:08:19;;;;;;;35.65;20.40;;;;;;;6.34;100.00;100806.03;5028201;28;20034;-78
2024/02/21 02:10:45;;;;;;;32.50;20.02;;;;;;;6.36;100.00;100801.38;5026980;28;20568;-78
2024/02/21 02:13:11;;;;;;;32.22;19.25;;;;;;;6.20;100.00;100793.50;5028777;28;20041;-79
2024/02/21 02:15:48;;;;;;;36.63;20.98;;;;;;;6.23;100.00;100779.91;5027421;28;20049;-79
2024/02/21 02:18:15;;;;;;;35.67;21.58;;;;;;;6.15;100.00;100801.97;5028645;28;20029;-78
2024/02/21 02:20:41;;;;;;;37.60;21.75;;;;;;;5.96;100.00;100774.06;5028443;28;20033;-78
2024/02/21 02:23:13;;;;;;;37.50;19.45;;;;;;;5.83;100.00;100793.09;5028472;28;20108;-79
2024/02/21 02:25:39;;;;;;;34.28;19.05;;;;;;;5.74;100.00;100795.94;5027021;28;20037;-78
2024/02/21 02:28:08;;;;;;;35.13;20.60;;;;;;;5.88;100.00;100800.53;5028292;28;20026;-79
2024/02/21 02:30:34;;;;;;;;;;;;;;;6.17;100.00;100801.78;5016276;28;20033;-78
2024/02/21 02:33:00;;;;;;;38.15;19.63;;;;;;;6.28;100.00;100782.06;5010351;28;20362;-79
2024/02/21 02:35:25;;;;;;;34.15;20.65;;;;;;;6.17;100.00;100785.91;5028096;28;20033;-80
2024/02/21 02:37:51;;;;;;;37.25;20.75;;;;;;;6.23;100.00;100807.25;5028287;28;20033;-79
2024/02/21 02:40:18;;;;;;;38.30;22.83;;;;;;;6.43;100.00;100791.72;5028049;28;20109;-79
2024/02/21 02:42:44;;;;;;;42.35;25.30;;;;;;;6.41;100.00;100799.03;5028246;28;20080;-79
2024/02/21 02:45:09;;;;;;;51.03;28.15;;;;;;;6.26;100.00;100806.06;5027162;28;20421;-79
2024/02/21 02:47:35;;;;;;;47.58;27.10;;;;;;;6.26;100.00;100800.78;5028085;28;20508;-79
2024/02/21 02:50:01;;;;;;;53.13;29.33;;;;;;;6.21;100.00;100803.09;5026826;28;20053;-79
2024/02/21 02:52:26;;;;;;;50.35;28.85;;;;;;;6.11;100.00;100770.69;5028041;28;20025;-79
2024/02/21 02:54:52;;;;;;;46.97;28.70;;;;;;;6.32;100.00;100800.06;5026735;28;20096;-79
2024/02/21 02:57:18;;;;;;;48.33;29.05;;;;;;;6.39;100.00;100795.72;5028063;28;20091;-79
2024/02/21 02:59:50;;;;;;;45.45;26.13;;;;;;;6.30;100.00;100786.19;5041035;28;20033;-80
2024/02/21 03:02:17;;;;;;;49.20;26.50;;;;;;;6.38;100.00;100795.91;5046595;28;20127;-79
2024/02/21 03:04:43;;;;;;;47.33;28.77;;;;;;;6.43;100.00;100802.31;5047313;28;20029;-79
2024/02/21 03:07:09;;;;;;;41.22;22.88;;;;;;;5.85;100.00;100782.34;5031650;28;20063;-79
2024/02/21 03:09:34;;;;;;;44.00;24.88;;;;;;;5.66;100.00;100804.75;5027727;28;20094;-79
2024/02/21 03:12:02;;;;;;;40.83;23.00;;;;;;;5.41;100.00;100758.97;5026643;28;20029;-79
2024/02/21 03:14:28;;;;;;;40.53;23.73;;;;;;;5.10;100.00;100761.47;5026205;28;20060;-79
2024/02/21 03:16:54;;;;;;;43.85;24.67;;;;;;;5.20;100.00;100784.13;5027088;28;20053;-79
2024/02/21 03:19:19;;;;;;;53.60;30.58;;;;;;;5.30;100.00;100799.81;5027949;28;20262;-79
2024/02/21 03:21:45;;;;;;;50.35;28.95;;;;;;;5.53;100.00;100789.38;5027163;28;20390;-79
2024/02/21 03:24:10;;;;;;;46.60;25.70;;;;;;;5.29;100.00;100798.19;5027604;28;20040;-79
2024/02/21 03:26:36;;;;;;;41.50;23.20;;;;;;;5.02;100.00;100780.81;5034940;28;20118;-79
2024/02/21 03:29:01;;;;;;;40.45;23.10;;;;;;;5.22;100.00;100790.06;5040264;28;20025;-79
2024/02/21 03:31:27;;;;;;;38.80;22.58;;;;;;;5.35;100.00;100808.09;5027511;28;20032;-79
2024/02/21 03:33:52;;;;;;;45.28;24.33;;;;;;;5.78;100.00;100818.44;5027301;28;20021;-79
2024/02/21 03:36:18;;;;;;;44.67;24.83;;;;;;;5.85;100.00;100792.94;5027168;28;20036;-79
2024/02/21 03:38:43;;;;;;;47.88;25.98;;;;;;;5.84;100.00;100809.81;5026458;28;20108;-79
2024/02/21 03:41:08;;;;;;;47.55;27.65;;;;;;;5.72;100.00;100808.50;5027130;28;20033;-79
2024/02/21 03:43:34;;;;;;;46.78;29.70;;;;;;;5.44;100.00;100804.44;5026842;28;20025;-79
2024/02/21 03:45:59;;;;;;;46.03;28.20;;;;;;;5.02;100.00;100800.13;5026981;28;20495;-79
2024/02/21 03:48:25;;;;;;;45.65;26.98;;;;;;;5.23;100.00;100790.88;5026772;28;20029;-80
2024/02/21 03:50:51;;;;;;;40.97;25.33;;;;;;;5.46;100.00;100808.75;5025738;28;20110;-79
2024/02/21 03:53:16;;;;;;;42.00;25.25;;;;;;;5.19;100.00;100779.84;5025595;28;20025;-79
2024/02/21 03:55:41;;;;;;;43.47;26.35;;;;;;;5.38;100.00;100796.34;5039589;28;20036;-80
2024/02/21 03:58:07;;;;;;;49.47;26.58;;;;;;;5.44;100.00;100804.44;5031015;28;20025;-80
2024/02/21 04:00:32;;;;;;;42.38;25.27;;;;;;;5.42;100.00;100795.84;5039396;28;20021;-79
2024/02/21 04:02:57;;;;;;;51.03;29.80;;;;;;;5.38;100.00;100806.94;5046775;28;20033;-80
2024/02/21 04:05:23;;;;;;;43.92;26.50;;;;;;;5.27;100.00;100804.59;5046649;28;20020;-80
2024/02/21 04:07:48;;;;;;;46.65;26.15;;;;;;;5.20;100.00;100813.19;5032225;28;20037;-79
2024/02/21 04:10:14;;;;;;;50.05;28.08;;;;;;;5.14;100.00;100792.72;5026790;28;20021;-79
2024/02/21 04:12:39;;;;;;;55.30;37.15;;;;;;;4.87;100.00;100812.34;5027116;28;20044;-79
2024/02/21 04:15:05;;;;;;;58.05;37.22;;;;;;;4.79;100.00;100792.03;5025646;28;20049;-79
2024/02/21 04:17:31;;;;;;;58.03;34.92;;;;;;;5.00;100.00;100815.34;5027034;28;20033;-79
2024/02/21 04:20:08;;;;;;;51.97;32.35;;;;;;;5.06;100.00;100813.03;5026718;28;20924;-79
2024/02/21 04:22:34;;;;;;;56.03;34.27;;;;;;;4.74;100.00;100820.78;5026990;28;20025;-79
2024/02/21 04:25:00;;;;;;;57.35;35.90;;;;;;;4.74;100.00;100804.91;5026548;28;20048;-79
2024/02/21 04:27:25;;;;;;;57.05;34.40;;;;;;;4.88;100.00;100784.09;5025736;28;20037;-79
2024/02/21 04:29:51;;;;;;;58.58;34.25;;;;;;;5.21;100.00;100804.28;5026435;28;20573;-80
2024/02/21 04:32:16;;;;;;;52.17;31.52;;;;;;;5.29;100.00;100819.34;5025576;28;20060;-79
2024/02/21 04:34:41;;;;;;;56.30;32.72;;;;;;;5.30;100.00;100814.88;5027067;28;20430;-79
2024/02/21 04:37:07;;;;;;;52.63;32.28;;;;;;;5.26;100.00;100802.97;5039175;28;20061;-79
2024/02/21 04:39:32;;;;;;;55.40;31.58;;;;;;;5.26;100.00;100802.97;5028847;28;20112;-80
2024/02/21 04:41:58;;;;;;;57.55;35.22;;;;;;;5.20;100.00;100810.56;5030170;28;20036;-79
2024/02/21 04:44:23;;;;;;;58.25;37.22;;;;;;;5.12;100.00;100796.50;5029437;28;20021;-80
2024/02/21 04:46:49;;;;;;;57.60;36.30;;;;;;;5.28;100.00;100793.88;5030422;28;20037;-79
2024/02/21 04:49:14;;;;;;;58.70;36.42;;;;;;;5.60;100.00;100823.94;5042966;28;20078;-79
2024/02/21 04:51:40;;;;;;;59.60;35.97;;;;;;;5.40;100.00;100807.59;5046196;28;20029;-79
2024/02/21 04:54:06;;;;;;;55.65;33.38;;;;;;;5.41;100.00;100825.94;5050134;28;20588;-79
2024/02/21 04:56:32;;;;;;;53.38;31.95;;;;;;;5.31;100.00;100827.09;5036535;28;20045;-79
2024/02/21 04:58:57;;;;;;;54.88;35.03;;;;;;;4.90;100.00;100808.56;5030193;28;20425;-79
2024/02/21 05:01:22;;;;;;;57.13;32.63;;;;;;;4.82;100.00;100812.84;5029984;28;20128;-79
2024/02/21 05:03:48;;;;;;;54.97;29.73;;;;;;;5.09;100.00;100813.53;5029892;28;20033;-79
2024/02/21 05:06:13;;;;;;;68.07;38.58;;;;;;;4.63;100.00;100813.13;5030098;28;20735;-79
2024/02/21 05:08:40;;;;;;;66.55;42.00;;;;;;;4.76;100.00;100839.06;5029897;28;20060;-79
2024/02/21 05:11:05;;;;;;;47.33;28.88;;;;;;;4.95;100.00;100822.94;5029974;28;20040;-80
2024/02/21 05:13:30;;;;;;;48.13;28.60;;;;;;;4.97;100.00;100831.53;5029609;28;20033;-79
2024/02/21 05:15:56;;;;;;;43.33;26.88;;;;;;;4.98;100.00;100846.38;5029627;28;20041;-79
2024/02/21 05:18:21;;;;;;;47.75;26.25;;;;;;;4.89;100.00;100843.91;5029748;28;20136;-80
2024/02/21 05:20:47;;;;;;;46.90;26.52;;;;;;;4.82;100.00;100841.94;5023727;28;20022;-79
2024/02/21 05:23:12;;;;;;;43.22;24.42;;;;;;;4.49;100.00;100817.22;5030126;28;20021;-79
2024/02/21 05:25:37;;;;;;;40.88;24.83;;;;;;;4.91;100.00;100831.38;5029608;28;20481;-78
2024/02/21 05:28:05;;;;;;;50.97;26.65;;;;;;;5.04;100.00;100853.66;5029581;28;20021;-80
2024/02/21 05:30:31;;;;;;;47.30;28.50;;;;;;;5.04;100.00;100834.34;5029705;28;20120;-78
2024/02/21 05:32:56;;;;;;;49.20;27.80;;;;;;;5.06;100.00;100848.22;5027902;28;20120;-78
2024/02/21 05:35:26;;;;;;;48.85;28.00;;;;;;;5.16;100.00;100856.81;5029423;28;20404;-79
2024/02/21 05:37:52;;;;;;;45.45;26.48;;;;;;;4.86;100.00;100831.84;5028716;28;20441;-79
2024/02/21 05:40:18;;;;;;;42.67;26.92;;;;;;;5.00;100.00;100835.66;5029091;28;20475;-78
2024/02/21 05:42:43;;;;;;;43.85;25.85;;;;;;;4.96;100.00;100839.63;5029005;28;20117;-79
2024/02/21 05:45:09;;;;;;;45.78;25.85;;;;;;;4.71;100.00;100844.84;5029661;28;20036;-79
2024/02/21 05:47:34;;;;;;;43.35;26.05;;;;;;;4.65;100.00;100832.28;5029253;28;20112;-81
2024/02/21 05:50:00;;;;;;;49.17;26.63;;;;;;;4.76;100.00;100839.94;5028860;28;20056;-79
2024/02/21 05:52:25;;;;;;;46.25;25.73;;;;;;;4.25;100.00;100840.91;5029286;28;20046;-79
2024/02/21 05:54:50;;;;;;;36.85;23.13;;;;;;;4.00;100.00;100846.06;5028957;28;20026;-79
2024/02/21 05:57:17;;;;;;;37.35;21.65;;;;;;;3.99;100.00;100853.16;5027557;28;20554;-79
2024/02/21 05:59:43;;;;;;;40.50;23.38;;;;;;;4.36;100.00;100864.41;5029499;28;20018;-79
2024/02/21 06:02:09;;;;;;;38.05;22.10;;;;;;;4.15;100.00;100867.44;5028714;28;20072;-77
2024/02/21 06:04:35;;;;;;;38.05;21.52;;;;;;;3.94;100.00;100841.41;5030516;28;20509;-78
2024/02/21 06:07:01;;;;;;;43.05;24.40;;;;;;;4.15;100.00;100862.16;5038991;28;20108;-79
2024/02/21 06:09:26;;;;;;;40.50;23.15;;;;;;;4.29;100.00;100884.47;5027857;28;20159;-78
2024/02/21 06:11:52;;;;;;;58.08;35.05;;;;;;;4.34;100.00;100855.81;5028244;28;20037;-79
2024/02/21 06:14:17;;;;;;;59.83;38.03;;;;;;;4.68;100.00;100852.28;5028338;28;20021;-78
2024/02/21 06:16:43;;;;;;;60.72;33.33;;;;;;;5.06;100.00;100872.00;5034317;28;20498;-78
2024/02/21 06:19:09;;;;;;;68.13;39.50;;;;;;;5.21;100.00;100880.13;5032704;28;20025;-79
2024/02/21 06:21:34;;;;;;;58.38;34.95;;;;;;;5.26;100.00;100892.88;5028455;28;20031;-79
2024/02/21 06:24:07;;;;;;;82.07;44.83;;;;;;;5.00;100.00;100865.56;5028275;28;20029;-79
2024/02/21 06:26:32;;;;;;;105.72;61.22;;;;;;;4.68;100.00;100858.41;5024395;28;20033;-79
2024/02/21 06:28:59;;;;;;;70.68;40.10;;;;;;;4.86;100.00;100868.00;5028140;28;20030;-78
2024/02/21 06:31:25;;;;;;;84.43;46.80;;;;;;;5.31;100.00;100875.53;5028361;28;20060;-78
2024/02/21 06:33:51;;;;;;;66.28;37.85;;;;;;;5.54;100.00;100901.34;5027921;28;20537;-79
2024/02/21 06:36:16;;;;;;;65.05;34.42;;;;;;;5.34;100.00;100890.25;5037607;28;20033;-78
2024/02/21 06:38:41;;;;;;;59.70;33.60;;;;;;;5.13;100.00;100888.91;5036890;28;20060;-78
2024/02/21 06:41:18;;;;;;;65.93;39.60;;;;;;;5.37;100.00;100900.47;5030556;28;20091;-78
2024/02/21 06:43:45;;;;;;;69.43;39.95;;;;;;;5.68;100.00;100913.06;5037337;28;20036;-79
2024/02/21 06:46:11;;;;;;;68.38;39.40;;;;;;;5.71;100.00;100912.75;5038845;28;20029;-79
2024/02/21 06:48:36;;;;;;;69.28;37.78;;;;;;;5.68;100.00;100886.59;5040570;28;20605;-78
2024/02/21 06:51:03;;;;;;;60.42;35.83;;;;;;;5.82;100.00;100885.91;5028167;28;20029;-78
2024/02/21 06:53:28;;;;;;;63.13;36.58;;;;;;;6.13;100.00;100901.13;5027621;28;20029;-78
2024/02/21 06:55:54;;;;;;;61.33;36.88;;;;;;;6.14;100.00;100873.66;5027807;28;20029;-78
2024/02/21 06:58:19;;;;;;;71.85;40.35;;;;;;;6.44;100.00;100904.69;5024802;28;20029;-79
2024/02/21 07:00:45;;;;;;;74.97;43.70;;;;;;;6.77;100.00;100901.88;5027411;28;20530;-78
2024/02/21 07:03:10;;;;;;;63.22;38.45;;;;;;;6.80;100.00;100872.41;5026916;28;20025;-79
2024/02/21 07:05:35;;;;;;;58.40;40.47;;;;;;;6.86;100.00;100880.63;5027504;28;20033;-79
2024/02/21 07:08:01;;;;;;;57.10;31.65;;;;;;;7.04;100.00;100908.53;5027260;28;20030;-78
2024/02/21 07:10:28;;;;;;;56.53;36.42;;;;;;;7.08;100.00;100886.97;5027556;28;21089;-77
2024/02/21 07:12:55;;;;;;;53.93;33.20;;;;;;;7.16;100.00;100903.66;5027361;28;20067;-78
2024/02/21 07:15:20;;;;;;;56.53;33.58;;;;;;;7.28;100.00;100900.59;5025625;28;20534;-78
2024/02/21 07:17:46;;;;;;;54.70;32.13;;;;;;;7.29;100.00;100881.84;5020822;28;20022;-78
2024/02/21 07:20:11;;;;;;;51.05;32.63;;;;;;;7.33;100.00;100911.50;5021463;28;20528;-78
2024/02/21 07:22:36;;;;;;;63.70;34.33;;;;;;;7.47;100.00;100894.81;5025871;28;20625;-79
2024/02/21 07:25:02;;;;;;;56.10;33.97;;;;;;;7.52;100.00;100896.91;5027513;28;20514;-79
2024/02/21 07:27:30;;;;;;;53.97;33.95;;;;;;;7.58;100.00;100898.88;5023164;28;20022;-79
2024/02/21 07:29:56;;;;;;;;;;;;;;;7.71;100.00;100914.22;5010151;28;20153;-79
2024/02/21 07:32:21;;;;;;;79.07;47.83;;;;;;;7.34;100.00;100860.09;5013722;28;20008;-79
2024/02/21 07:34:46;;;;;;;69.07;41.67;;;;;;;7.82;100.00;100903.13;5027518;28;20040;-79
2024/02/21 07:37:12;;;;;;;67.28;38.85;;;;;;;8.08;100.00;100901.91;5027899;28;20029;-79
2024/02/21 07:39:38;;;;;;;60.72;37.10;;;;;;;8.09;100.00;100908.84;5038264;28;20022;-79
2024/02/21 07:42:04;;;;;;;56.35;32.17;;;;;;;8.12;100.00;100911.16;5025354;28;20021;-79
2024/02/21 07:44:31;;;;;;;56.75;35.20;;;;;;;7.86;100.00;100912.41;5027196;28;20037;-78
2024/02/21 07:46:57;;;;;;;63.50;36.80;;;;;;;8.54;100.00;100912.38;5026693;28;20052;-79
2024/02/21 07:49:22;;;;;;;52.28;33.10;;;;;;;8.42;100.00;100883.63;5026722;28;20423;-79
2024/02/21 07:51:48;;;;;;;52.70;32.63;;;;;;;8.52;100.00;100882.50;5026494;28;20109;-79
2024/02/21 07:54:13;;;;;;;50.85;31.80;;;;;;;8.58;100.00;100903.88;5032689;28;20120;-79
2024/02/21 07:56:38;;;;;;;47.00;28.15;;;;;;;8.68;100.00;100903.56;5026790;28;20030;-79
2024/02/21 07:59:04;;;;;;;41.15;24.60;;;;;;;8.81;100.00;100919.69;5026625;28;20107;-79
2024/02/21 08:01:29;;;;;;;42.30;25.75;;;;;;;9.02;100.00;100875.50;5026501;28;20044;-79
2024/02/21 08:03:55;;;;;;;44.50;26.08;;;;;;;9.34;100.00;100908.00;5025349;28;20056;-78
2024/02/21 08:06:20;;;;;;;39.70;26.27;;;;;;;9.51;100.00;100908.56;5026454;28;20033;-78
2024/02/21 08:08:45;;;;;;;46.63;26.73;;;;;;;9.79;100.00;100916.59;5026716;28;20053;-78
2024/02/21 08:11:11;;;;;;;40.17;25.25;;;;;;;9.89;100.00;100937.53;5025167;28;20117;-78
2024/02/21 08:13:36;;;;;;;45.03;26.75;;;;;;;9.65;100.00;100921.78;5027178;28;20491;-79
2024/02/21 08:16:03;;;;;;;44.53;29.38;;;;;;;9.76;100.00;100927.59;5030707;28;20101;-78
2024/02/21 08:18:28;;;;;;;45.88;29.02;;;;;;;10.03;100.00;100910.81;5029330;28;20041;-77
2024/02/21 08:20:53;;;;;;;45.42;28.80;;;;;;;10.29;100.00;100922.66;5029353;28;20090;-78
2024/02/21 08:23:23;;;;;;;44.65;29.83;;;;;;;10.58;100.00;100937.63;5037615;28;20123;-78
2024/02/21 08:25:48;;;;;;;41.80;27.77;;;;;;;10.33;100.00;100923.94;5030509;28;20056;-78
2024/02/21 08:28:14;;;;;;;76.63;52.17;;;;;;;10.60;100.00;100934.75;5029274;28;20043;-78
2024/02/21 08:30:39;;;;;;;42.65;27.92;;;;;;;10.97;100.00;100924.66;5030228;28;20064;-77
2024/02/21 08:33:04;;;;;;;40.00;24.38;;;;;;;11.18;100.00;100937.88;5030156;28;20129;-77
2024/02/21 08:35:30;;;;;;;39.13;22.95;;;;;;;10.95;100.00;100937.38;5030411;28;20395;-77
2024/02/21 08:37:55;;;;;;;34.28;22.75;;;;;;;10.77;100.00;100909.41;5028857;28;20025;-78
2024/02/21 08:40:21;;;;;;;35.75;22.48;;;;;;;11.17;100.00;100919.38;5028775;28;20026;-79
2024/02/21 08:42:47;;;;;;;32.38;21.20;;;;;;;11.32;97.49;100933.38;5029702;28;20026;-78
2024/02/21 08:45:13;;;;;;;32.25;20.67;;;;;;;11.33;96.87;100910.16;5030321;28;20042;-78
2024/02/21 08:47:41;;;;;;;32.15;20.55;;;;;;;11.17;97.78;100877.47;5030156;28;20455;-79
2024/02/21 08:50:09;;;;;;;31.67;19.92;;;;;;;11.45;94.50;100927.25;5042705;28;20033;-78
2024/02/21 08:52:35;;;;;;;30.58;18.52;;;;;;;11.33;97.88;100918.19;5030036;28;20061;-78
2024/02/21 08:55:00;;;;;;;31.92;18.70;;;;;;;11.33;94.63;100913.66;5029818;28;20061;-77
2024/02/21 08:57:26;;;;;;;29.10;18.67;;;;;;;11.38;93.35;100905.03;5029810;28;20037;-78
2024/02/21 08:59:52;;;;;;;29.30;17.50;;;;;;;11.56;96.36;100929.28;5034895;28;20029;-85
2024/02/21 09:02:17;;;;;;;28.73;18.02;;;;;;;11.84;93.21;100937.13;5023839;28;20018;-78
2024/02/21 09:04:46;;;;;;;29.95;20.38;;;;;;;12.00;94.34;100921.75;5031860;28;20056;-78
2024/02/21 09:07:11;;;;;;;27.15;18.83;;;;;;;11.68;93.61;100905.47;5029937;28;20549;-78
2024/02/21 09:09:38;;;;;;;29.95;20.27;;;;;;;11.91;91.74;100888.22;5043272;28;20143;-78
2024/02/21 09:12:06;;;;;;;27.13;18.80;;;;;;;11.96;91.88;100934.69;5029965;28;20029;-78
2024/02/21 09:14:32;;;;;;;27.10;17.23;;;;;;;12.04;90.80;100926.44;5029192;28;20484;-79
2024/02/21 09:16:57;;;;;;;28.45;18.63;;;;;;;12.14;86.90;100935.91;5028224;28;20092;-79
2024/02/21 09:19:23;;;;;;;29.25;18.08;;;;;;;12.27;90.86;100919.84;5028244;28;20506;-79
2024/02/21 09:21:49;;;;;;;26.88;17.52;;;;;;;12.46;88.93;100918.97;5041412;28;20033;-78
2024/02/21 09:24:14;;;;;;;24.85;17.27;;;;;;;12.12;88.18;100890.66;5027678;28;20083;-78
2024/02/21 09:26:39;;;;;;;29.13;18.40;;;;;;;12.61;85.32;100915.22;5029643;28;20494;-76
2024/02/21 09:29:05;;;;;;;30.15;19.30;;;;;;;12.68;85.98;100921.34;5029944;28;20033;-78
2024/02/21 09:31:30;;;;;;;28.90;17.73;;;;;;;12.54;85.50;100904.53;5029468;28;20045;-77
2024/02/21 09:33:56;;;;;;;24.77;18.50;;;;;;;12.79;82.72;100918.03;5029265;28;20033;-78
2024/02/21 09:36:21;;;;;;;30.05;18.80;;;;;;;12.98;84.03;100899.41;5029161;28;20029;-78
2024/02/21 09:38:47;;;;;;;29.08;17.33;;;;;;;13.33;81.36;100917.78;5029175;28;20033;-77
2024/02/21 09:41:26;;;;;;;27.40;18.20;;;;;;;12.95;80.70;100922.06;5029117;28;20102;-77
2024/02/21 09:43:53;;;;;;;24.38;17.00;;;;;;;13.34;76.33;100908.69;5013201;28;20037;-78
2024/02/21 09:46:21;;;;;;;21.70;14.77;;;;;;;13.63;71.17;100905.41;5029161;28;20079;-77
2024/02/21 09:48:59;;;;;;;23.77;15.02;;;;;;;13.82;69.30;100926.91;5029315;28;20034;-78
2024/02/21 09:51:28;;;;;;;20.70;14.00;;;;;;;13.53;70.71;100905.06;5028997;28;20057;-77
2024/02/21 09:53:56;;;;;;;22.65;14.80;;;;;;;13.72;68.59;100915.84;5028960;28;20127;-78
2024/02/21 09:56:21;;;;;;;20.33;13.27;;;;;;;13.43;67.59;100924.28;5028911;28;20025;-77
2024/02/21 09:58:47;;;;;;;21.42;14.32;;;;;;;13.85;68.99;100915.72;5027511;28;20021;-77
2024/02/21 10:01:12;;;;;;;22.65;15.13;;;;;;;14.23;66.98;100920.94;5020932;28;20033;-77
2024/02/21 10:03:38;;;;;;;24.95;16.55;;;;;;;14.12;70.18;100905.59;5027509;28;20451;-77
2024/02/21 10:06:03;;;;;;;21.20;14.70;;;;;;;14.08;66.83;100909.75;5029226;28;20029;-78
2024/02/21 10:08:29;;;;;;;24.48;16.02;;;;;;;14.58;65.34;100906.16;5028446;28;20033;-77
2024/02/21 10:10:58;;;;;;;22.45;15.05;;;;;;;14.80;62.29;100904.63;5027505;28;21249;-78
2024/02/21 10:13:33;;;;;;;22.83;15.60;;;;;;;14.75;63.27;100882.19;5028808;28;20029;-77
2024/02/21 10:16:06;;;;;;;20.83;14.05;;;;;;;15.30;60.05;100905.41;5028152;28;20045;-77
2024/02/21 10:18:33;;;;;;;18.77;13.95;;;;;;;15.58;58.85;100905.56;5028664;28;20026;-78
2024/02/21 10:21:01;;;;;;;19.13;13.35;;;;;;;15.76;54.26;100906.56;5028555;28;20026;-77
2024/02/21 10:23:27;;;;;;;18.40;13.52;;;;;;;15.87;55.19;100878.84;5028562;28;20030;-77
2024/02/21 10:25:52;;;;;;;17.10;12.27;;;;;;;15.60;54.18;100879.28;5027094;28;20038;-77
2024/02/21 10:28:23;;;;;;;14.55;10.35;;;;;;;16.28;47.16;100890.50;5028221;28;20049;-78
2024/02/21 10:30:52;;;;;;;18.10;11.48;;;;;;;16.08;49.39;100869.38;5028504;28;20026;-78
2024/02/21 10:33:20;;;;;;;15.13;10.77;;;;;;;15.53;47.26;100851.69;5027962;28;20426;-77
2024/02/21 10:35:46;;;;;;;15.98;11.02;;;;;;;15.42;50.66;100844.44;5027773;28;20035;-78
2024/02/21 10:38:12;;;;;;;15.50;11.13;;;;;;;15.56;52.54;100861.97;5027366;28;20030;-77
2024/02/21 10:40:38;;;;;;;16.52;10.90;;;;;;;16.02;49.63;100840.75;5027267;28;20033;-77
2024/02/21 10:43:11;;;;;;;13.93;10.23;;;;;;;16.12;46.67;100856.25;5027395;28;20029;-77
2024/02/21 10:45:37;;;;;;;11.93;8.65;;;;;;;16.05;43.32;100842.94;5028302;28;20029;-78
2024/02/21 10:48:11;;;;;;;13.48;9.02;;;;;;;16.10;43.08;100850.28;5028183;28;20034;-78
2024/02/21 10:51:02;;;;;;;13.45;9.13;;;;;;;16.51;41.66;100845.75;5027996;28;20508;-78
2024/02/21 10:54:06;;;;;;;13.60;9.07;;;;;;;16.62;42.08;100839.53;5020578;28;20052;-79
2024/02/21 10:56:36;;;;;;;13.00;8.60;;;;;;;16.59;42.13;100821.13;5034394;28;20037;-78
2024/02/21 10:59:05;;;;;;;11.15;8.20;;;;;;;16.76;41.29;100822.00;5027661;28;20482;-78
2024/02/21 11:01:31;;;;;;;11.10;8.18;;;;;;;16.59;42.90;100818.44;5031966;28;20116;-78
2024/02/21 11:04:03;;;;;;;11.13;7.90;;;;;;;16.46;41.47;100816.88;5027750;28;20043;-77
2024/02/21 11:06:29;;;;;;;14.10;9.20;;;;;;;16.81;43.61;100818.63;5027943;28;20417;-78